Time;durP1;ratioP1;P1;durP2;ratioP2;P2;SDS_P1;SDS_P2;PMS_P1;PMS_P2;Temp;Humidity;BMP_temperature;BMP_pressure;BME280_temperature;BME280_humidity;BME280_pressure;Samples;Min_cycle;Max_cycle;Signal;HPM_P1;HPM_P2
2023/09/17 00:01:48;;;;;;;19.27;17.47;;;;;;;17.70;100.00;101154.38;5385316;27;20026;-89
2023/09/17 00:04:20;;;;;;;23.30;17.57;;;;;;;17.63;100.00;101152.91;5369241;27;20039;-90
2023/09/17 00:06:51;;;;;;;20.13;16.27;;;;;;;17.59;100.00;101140.72;5386233;27;20035;-89
2023/09/17 00:09:22;;;;;;;18.07;16.27;;;;;;;17.50;100.00;101144.56;5383305;27;20027;-90
2023/09/17 00:11:54;;;;;;;16.93;15.23;;;;;;;17.62;100.00;101135.34;5385490;27;20027;-90
2023/09/17 00:14:25;;;;;;;18.13;16.37;;;;;;;17.57;100.00;101134.66;5386372;27;20041;-92
2023/09/17 00:16:57;;;;;;;16.03;14.27;;;;;;;17.35;100.00;101131.94;5362284;27;20037;-91
2023/09/17 00:19:29;;;;;;;16.45;14.75;;;;;;;17.36;100.00;101131.88;5376315;27;20027;-90
2023/09/17 00:22:01;;;;;;;15.73;14.10;;;;;;;17.35;100.00;101139.84;5357726;27;20042;-90
2023/09/17 00:24:33;;;;;;;15.00;13.60;;;;;;;17.34;100.00;101141.63;5375710;27;20335;-89
2023/09/17 00:27:04;;;;;;;16.23;14.70;;;;;;;17.35;100.00;101153.84;5375541;27;20031;-89
2023/09/17 00:29:36;;;;;;;15.33;13.83;;;;;;;17.50;100.00;101152.47;5376445;27;20038;-89
2023/09/17 00:32:08;;;;;;;13.70;12.30;;;;;;;17.31;100.00;101150.47;5340171;27;20117;-89
2023/09/17 00:34:40;;;;;;;15.17;13.77;;;;;;;17.36;100.00;101158.22;5357188;27;20035;-88
2023/09/17 00:37:11;;;;;;;22.02;15.07;;;;;;;17.42;100.00;101142.19;5356841;27;20082;-89
2023/09/17 00:39:43;;;;;;;14.20;13.00;;;;;;;17.40;100.00;101149.28;5374943;27;20031;-88
2023/09/17 00:42:14;;;;;;;15.50;13.40;;;;;;;17.35;100.00;101151.22;5338990;27;20023;-88
2023/09/17 00:44:46;;;;;;;14.43;13.10;;;;;;;17.14;100.00;101150.19;5372752;27;20026;-89
2023/09/17 00:47:17;;;;;;;16.47;12.80;;;;;;;16.94;100.00;101143.84;5373710;27;20023;-89
2023/09/17 00:49:49;;;;;;;12.77;11.60;;;;;;;17.02;100.00;101146.22;5374542;27;20113;-90
2023/09/17 00:52:21;;;;;;;14.93;13.23;;;;;;;17.00;100.00;101136.63;5375055;27;20433;-90
2023/09/17 00:54:54;;;;;;;16.52;13.20;;;;;;;16.96;100.00;101143.78;5375978;27;20030;-89
2023/09/17 00:57:26;;;;;;;17.10;14.35;;;;;;;16.90;100.00;101139.56;5377372;27;20065;-88
2023/09/17 00:59:57;;;;;;;15.38;13.18;;;;;;;16.83;100.00;101126.66;5374855;27;20031;-88
2023/09/17 01:02:29;;;;;;;14.32;12.73;;;;;;;16.83;100.00;101124.03;5378139;27;20094;-90
2023/09/17 01:05:00;;;;;;;14.70;13.13;;;;;;;16.80;100.00;101118.88;5377218;27;20035;-88
2023/09/17 01:07:34;;;;;;;14.17;12.87;;;;;;;16.79;100.00;101120.63;5378310;27;20057;-90
2023/09/17 01:10:06;;;;;;;14.45;13.18;;;;;;;16.65;100.00;101117.59;5379366;27;20026;-89
2023/09/17 01:12:38;;;;;;;14.55;13.15;;;;;;;16.72;100.00;101119.97;5360586;27;20031;-90
2023/09/17 01:15:10;;;;;;;14.30;13.00;;;;;;;16.72;100.00;101119.09;5378646;27;20033;-90
2023/09/17 01:17:41;;;;;;;15.13;13.67;;;;;;;16.55;100.00;101110.00;5379276;27;20035;-88
2023/09/17 01:20:25;;;;;;;15.57;13.97;;;;;;;16.47;100.00;101105.88;5378384;27;20023;-88
2023/09/17 01:23:02;;;;;;;14.75;13.05;;;;;;;16.57;100.00;101116.06;5378010;27;20441;-89
2023/09/17 01:25:42;;;;;;;16.95;15.15;;;;;;;16.64;100.00;101107.97;5373787;27;20105;-88
2023/09/17 01:28:14;;;;;;;15.20;13.45;;;;;;;16.47;100.00;101105.88;5358758;27;20022;-88
2023/09/17 01:30:46;;;;;;;16.40;14.73;;;;;;;16.60;100.00;101104.59;5377476;27;20055;-88
2023/09/17 01:33:18;;;;;;;16.23;14.70;;;;;;;16.50;100.00;101105.78;5359106;27;20533;-89
2023/09/17 01:36:18;;;;;;;15.10;13.60;;;;;;;16.50;100.00;101101.41;5378477;27;20106;-90
2023/09/17 01:38:59;;;;;;;16.20;14.57;;;;;;;16.46;100.00;101098.91;5375130;27;20497;-90
2023/09/17 01:41:33;;;;;;;18.15;14.65;;;;;;;16.35;100.00;101100.09;5359585;27;20035;-90
2023/09/17 01:44:07;;;;;;;16.20;14.27;;;;;;;16.10;100.00;101089.50;5360352;27;20030;-90
2023/09/17 01:46:40;;;;;;;14.80;13.38;;;;;;;16.15;100.00;101094.63;5359429;27;20381;-89
2023/09/17 01:49:13;;;;;;;16.30;14.57;;;;;;;16.19;100.00;101080.47;5349689;27;20039;-89
2023/09/17 01:51:45;;;;;;;16.17;14.57;;;;;;;16.26;100.00;101081.13;5355966;27;20038;-89
2023/09/17 01:54:16;;;;;;;15.63;13.98;;;;;;;16.23;100.00;101077.69;5337171;27;20066;-89
2023/09/17 01:56:48;;;;;;;16.13;13.80;;;;;;;16.09;100.00;101068.53;5355756;27;20363;-89
2023/09/17 01:59:19;;;;;;;15.33;13.80;;;;;;;16.02;100.00;101067.84;5357111;27;20028;-88
2023/09/17 02:01:51;;;;;;;15.80;14.30;;;;;;;16.12;100.00;101061.38;5339844;27;20055;-89
2023/09/17 02:04:22;;;;;;;17.50;15.03;;;;;;;16.22;100.00;101067.22;5364700;27;20031;-91
2023/09/17 02:06:53;;;;;;;16.10;14.60;;;;;;;16.19;100.00;101069.94;5370891;27;20051;-91
2023/09/17 02:09:25;;;;;;;17.83;16.00;;;;;;;16.05;100.00;101070.34;5355200;27;20027;-88
2023/09/17 02:11:56;;;;;;;17.90;16.13;;;;;;;16.02;100.00;101078.38;5339370;27;20078;-88
2023/09/17 02:14:28;;;;;;;16.37;14.63;;;;;;;15.96;100.00;101081.19;5373456;27;20073;-87
2023/09/17 02:16:59;;;;;;;16.70;14.93;;;;;;;15.95;100.00;101076.81;5368500;27;20131;-88
2023/09/17 02:19:30;;;;;;;17.47;15.60;;;;;;;15.91;100.00;101073.44;5355231;27;20371;-88
2023/09/17 02:22:02;;;;;;;17.77;16.03;;;;;;;16.00;100.00;101075.78;5356559;27;20031;-87
2023/09/17 02:24:33;;;;;;;18.17;16.37;;;;;;;15.95;100.00;101071.56;5338207;27;20114;-88
2023/09/17 02:27:05;;;;;;;18.77;16.77;;;;;;;15.96;100.00;101062.78;5357285;27;20029;-90
2023/09/17 02:29:37;;;;;;;19.73;17.00;;;;;;;15.97;100.00;101059.22;5359280;27;20027;-92
2023/09/17 02:32:09;;;;;;;18.53;16.83;;;;;;;15.97;100.00;101052.22;5364413;27;20015;-85
2023/09/17 02:34:41;;;;;;;20.75;18.60;;;;;;;16.00;100.00;101054.75;5374362;27;20052;-85
2023/09/17 02:37:12;;;;;;;21.00;18.93;;;;;;;16.06;100.00;101051.06;5373629;27;20106;-84
2023/09/17 02:39:44;;;;;;;20.40;18.27;;;;;;;16.04;100.00;101050.25;5373423;27;20025;-85
2023/09/17 02:42:16;;;;;;;19.90;17.95;;;;;;;15.97;100.00;101040.81;5355210;27;20042;-85
2023/09/17 02:44:47;;;;;;;21.70;19.70;;;;;;;16.04;100.00;101048.47;5370373;27;20019;-87
2023/09/17 02:47:18;;;;;;;21.10;19.17;;;;;;;16.07;100.00;101037.00;5336273;27;20435;-89
2023/09/17 02:49:50;;;;;;;21.93;19.77;;;;;;;16.12;100.00;101037.72;5336496;27;20031;-89
2023/09/17 02:52:21;;;;;;;22.83;20.60;;;;;;;15.97;100.00;101030.31;5355068;27;20027;-89
2023/09/17 02:54:54;;;;;;;21.47;19.33;;;;;;;15.98;100.00;101039.91;5354440;27;20072;-90
2023/09/17 02:57:26;;;;;;;21.13;19.23;;;;;;;15.82;100.00;101032.50;5355016;27;20031;-88
2023/09/17 02:59:57;;;;;;;22.83;20.45;;;;;;;15.79;100.00;101030.00;5353794;27;20053;-91
2023/09/17 03:02:29;;;;;;;22.17;19.87;;;;;;;15.72;100.00;101041.53;5363368;27;20551;-91
2023/09/17 03:05:00;;;;;;;23.10;20.77;;;;;;;15.75;100.00;101037.97;5348870;27;20035;-91
2023/09/17 03:07:32;;;;;;;23.90;21.50;;;;;;;15.69;100.00;101041.63;5366368;27;20047;-91
2023/09/17 03:10:10;;;;;;;22.40;20.30;;;;;;;15.58;100.00;101036.69;5369635;27;20062;-90
2023/09/17 03:12:42;;;;;;;23.02;20.73;;;;;;;15.62;100.00;101034.84;5353348;27;20042;-90
2023/09/17 03:15:13;;;;;;;21.50;19.60;;;;;;;15.47;100.00;101020.38;5355111;27;20393;-90
2023/09/17 03:17:45;;;;;;;22.90;20.70;;;;;;;15.47;100.00;101023.91;5355641;27;20026;-90
2023/09/17 03:20:22;;;;;;;22.87;20.70;;;;;;;15.50;100.00;101025.56;5362128;27;20027;-90
2023/09/17 03:22:54;;;;;;;21.92;19.83;;;;;;;15.43;100.00;101030.13;5354056;27;20035;-90
2023/09/17 03:25:25;;;;;;;22.40;20.40;;;;;;;15.50;100.00;101033.44;5355286;27;20415;-90
2023/09/17 03:27:59;;;;;;;23.20;20.10;;;;;;;15.53;100.00;101038.59;5361812;27;20030;-91
2023/09/17 03:30:30;;;;;;;23.55;21.02;;;;;;;15.43;100.00;101031.91;5371878;27;20038;-90
2023/09/17 03:33:03;;;;;;;23.90;21.23;;;;;;;15.38;100.00;101033.81;5373130;27;20023;-89
2023/09/17 03:35:34;;;;;;;;;;;;;;;15.52;100.00;101036.00;5373664;27;20011;-89
2023/09/17 03:38:05;;;;;;;22.77;20.45;;;;;;;15.47;100.00;101033.53;5372817;27;19903;-89
2023/09/17 03:40:38;;;;;;;23.20;21.10;;;;;;;15.44;100.00;101031.84;5350667;28;20051;-91
2023/09/17 03:43:09;;;;;;;21.25;19.27;;;;;;;15.50;100.00;101034.31;5362773;28;20035;-90
2023/09/17 03:45:41;;;;;;;22.67;20.57;;;;;;;15.55;100.00;101035.94;5363644;28;20090;-91
2023/09/17 03:48:12;;;;;;;22.67;20.27;;;;;;;15.55;100.00;101034.16;5366702;28;20035;-90
2023/09/17 03:50:44;;;;;;;24.07;21.93;;;;;;;15.46;100.00;101022.16;5369957;28;20042;-88
2023/09/17 03:53:15;;;;;;;23.33;21.13;;;;;;;15.44;100.00;101028.34;5372496;27;20011;-90
2023/09/17 03:55:47;;;;;;;21.37;19.37;;;;;;;15.44;100.00;101033.59;5355246;28;20018;-90
2023/09/17 03:58:21;;;;;;;22.65;20.50;;;;;;;15.46;100.00;101031.81;5361691;28;20043;-91
2023/09/17 04:00:53;;;;;;;22.67;20.67;;;;;;;15.54;100.00;101031.59;5365368;28;20034;-91
2023/09/17 04:03:25;;;;;;;23.03;20.77;;;;;;;15.39;100.00;101022.38;5364806;28;20039;-89
2023/09/17 04:05:56;;;;;;;22.08;19.98;;;;;;;15.42;100.00;101036.31;5358538;28;20052;-90
2023/09/17 04:08:28;;;;;;;22.87;20.83;;;;;;;15.35;100.00;101037.38;5360916;28;20035;-89
2023/09/17 04:11:00;;;;;;;23.90;21.60;;;;;;;15.27;100.00;101029.69;5340283;28;20367;-90
2023/09/17 04:13:31;;;;;;;24.30;21.38;;;;;;;15.39;100.00;101031.13;5356448;28;20058;-91
2023/09/17 04:16:03;;;;;;;22.70;20.55;;;;;;;15.20;100.00;101027.28;5357438;28;20035;-90
2023/09/17 04:18:35;;;;;;;23.52;21.33;;;;;;;15.19;100.00;101031.69;5357662;28;20060;-90
2023/09/17 04:21:06;;;;;;;23.70;21.20;;;;;;;15.32;100.00;101019.91;5356235;28;20062;-89
2023/09/17 04:23:38;;;;;;;27.57;22.27;;;;;;;15.33;100.00;101020.81;5355344;28;20042;-90
2023/09/17 04:26:12;;;;;;;24.77;22.67;;;;;;;15.47;100.00;101026.53;5355667;28;20034;-89
2023/09/17 04:28:46;;;;;;;23.23;20.95;;;;;;;15.51;100.00;101029.91;5356018;28;20023;-90
2023/09/17 04:31:17;;;;;;;24.85;22.63;;;;;;;15.45;100.00;101024.84;5338818;27;20027;-91
2023/09/17 04:33:48;;;;;;;23.67;21.57;;;;;;;15.37;100.00;101021.56;5359519;27;20128;-90
2023/09/17 04:36:20;;;;;;;23.45;21.25;;;;;;;15.41;100.00;101028.47;5359163;27;20042;-90
2023/09/17 04:38:52;;;;;;;24.00;21.70;;;;;;;15.45;100.00;101023.06;5358705;27;20114;-89
2023/09/17 04:41:23;;;;;;;26.10;22.83;;;;;;;15.40;100.00;101021.47;5358304;27;20027;-90
2023/09/17 04:43:54;;;;;;;25.43;23.23;;;;;;;15.29;100.00;101017.41;5339959;27;20031;-90
2023/09/17 04:46:26;;;;;;;25.27;22.87;;;;;;;15.32;100.00;101019.91;5357931;27;20031;-91
2023/09/17 04:48:57;;;;;;;26.60;24.00;;;;;;;15.30;100.00;101005.97;5359303;27;20031;-91
2023/09/17 04:51:28;;;;;;;26.23;23.67;;;;;;;15.30;100.00;101016.50;5362757;27;20122;-91
2023/09/17 04:54:01;;;;;;;25.80;23.17;;;;;;;15.29;100.00;101019.16;5373144;27;20031;-90
2023/09/17 04:56:33;;;;;;;24.92;22.52;;;;;;;15.18;100.00;101014.19;5375335;27;20011;-87
2023/09/17 04:59:04;;;;;;;26.77;24.37;;;;;;;15.29;100.00;101008.66;5375691;27;20026;-89
2023/09/17 05:01:36;;;;;;;28.10;25.30;;;;;;;15.25;100.00;101007.03;5375521;27;20035;-91
2023/09/17 05:04:07;;;;;;;27.73;25.03;;;;;;;15.34;100.00;101008.53;5366381;27;20064;-91
2023/09/17 05:06:38;;;;;;;24.80;22.60;;;;;;;15.55;100.00;101014.91;5359181;27;20035;-91
2023/09/17 05:09:10;;;;;;;28.67;26.00;;;;;;;15.44;100.00;101025.72;5345842;27;20035;-89
2023/09/17 05:11:41;;;;;;;28.60;25.93;;;;;;;15.43;100.00;101018.78;5375677;27;20029;-89
2023/09/17 05:14:13;;;;;;;28.43;25.77;;;;;;;15.41;100.00;101023.22;5356262;27;20023;-89
2023/09/17 05:16:44;;;;;;;29.53;26.87;;;;;;;15.31;100.00;101022.59;5359549;27;20038;-89
2023/09/17 05:19:15;;;;;;;28.63;26.13;;;;;;;15.44;100.00;101025.72;5358139;27;20031;-90
2023/09/17 05:21:47;;;;;;;29.37;26.67;;;;;;;15.49;100.00;101029.09;5356908;27;20024;-90
2023/09/17 05:24:18;;;;;;;29.63;26.47;;;;;;;15.53;100.00;101027.25;5338335;27;20027;-90
2023/09/17 05:26:50;;;;;;;29.77;26.77;;;;;;;15.48;100.00;101022.97;5356399;27;20046;-91
2023/09/17 05:29:22;;;;;;;31.63;28.63;;;;;;;15.44;100.00;101025.72;5356322;27;20114;-90
2023/09/17 05:31:53;;;;;;;28.57;25.97;;;;;;;15.57;100.00;101035.00;5338420;27;20031;-90
2023/09/17 05:34:24;;;;;;;30.67;27.87;;;;;;;15.51;100.00;101032.53;5356499;27;20035;-90
2023/09/17 05:36:56;;;;;;;30.53;27.57;;;;;;;15.49;100.00;101031.72;5356748;27;20038;-90
2023/09/17 05:39:27;;;;;;;31.27;28.00;;;;;;;15.51;100.00;101032.53;5356169;27;20057;-89
2023/09/17 05:41:59;;;;;;;31.73;28.50;;;;;;;15.54;100.00;101029.81;5356159;27;20035;-90
2023/09/17 05:44:30;;;;;;;31.73;28.53;;;;;;;15.61;100.00;101031.34;5355612;27;20092;-89
2023/09/17 05:47:01;;;;;;;31.63;28.63;;;;;;;15.65;100.00;101034.78;5356107;27;20068;-90
2023/09/17 05:49:33;;;;;;;32.30;29.13;;;;;;;15.53;100.00;101030.72;5356438;27;20440;-90
2023/09/17 05:52:05;;;;;;;31.37;28.53;;;;;;;15.54;100.00;101037.69;5356745;27;20463;-88
2023/09/17 05:54:36;;;;;;;32.17;29.07;;;;;;;15.64;100.00;101033.03;5356630;27;20023;-89
2023/09/17 05:57:07;;;;;;;32.47;29.67;;;;;;;15.52;100.00;101031.66;5356346;27;20027;-88
2023/09/17 05:59:39;;;;;;;33.10;29.33;;;;;;;15.60;100.00;101032.28;5357715;27;20367;-92
2023/09/17 06:02:11;;;;;;;32.47;29.10;;;;;;;15.69;100.00;101031.13;5359971;27;20031;-89
2023/09/17 06:04:43;;;;;;;32.95;29.98;;;;;;;15.62;100.00;101033.09;5361006;27;20043;-89
2023/09/17 06:07:15;;;;;;;31.50;28.60;;;;;;;15.81;100.00;101027.28;5363644;27;20060;-89
2023/09/17 06:09:46;;;;;;;;;;;;;;;15.85;100.00;101029.78;5362796;27;20099;-90
2023/09/17 06:12:18;;;;;;;32.42;29.30;;;;;;;15.69;100.00;101036.38;5363181;27;19937;-89
2023/09/17 06:14:50;;;;;;;32.60;29.53;;;;;;;15.74;100.00;101029.22;5362774;27;20035;-91
2023/09/17 06:17:21;;;;;;;32.30;29.17;;;;;;;15.79;100.00;101035.25;5368743;27;20031;-90
2023/09/17 06:19:52;;;;;;;33.33;30.33;;;;;;;15.74;100.00;101034.47;5344200;27;20051;-91
2023/09/17 06:22:24;;;;;;;30.97;28.17;;;;;;;15.74;100.00;101037.09;5354976;27;20033;-91
2023/09/17 06:24:55;;;;;;;29.63;26.97;;;;;;;15.73;100.00;101038.03;5338729;27;20084;-89
2023/09/17 06:27:29;;;;;;;32.47;29.27;;;;;;;15.75;100.00;101036.19;5357236;27;20110;-86
2023/09/17 06:30:01;;;;;;;31.30;28.45;;;;;;;15.67;100.00;101036.41;5357493;27;20042;-89
2023/09/17 06:32:33;;;;;;;32.13;29.07;;;;;;;15.73;100.00;101037.13;5356839;27;20038;-86
2023/09/17 06:35:06;;;;;;;34.08;30.75;;;;;;;15.69;100.00;101033.75;5353747;27;20117;-86
2023/09/17 06:37:37;;;;;;;33.97;30.77;;;;;;;15.70;100.00;101032.84;5335037;27;20119;-85
2023/09/17 06:40:10;;;;;;;33.30;30.10;;;;;;;15.75;100.00;101037.97;5355068;27;20039;-85
2023/09/17 06:42:41;;;;;;;35.55;32.17;;;;;;;15.84;100.00;101035.97;5353564;27;20038;-88
2023/09/17 06:45:13;;;;;;;34.03;30.83;;;;;;;15.88;100.00;101027.97;5336478;27;20031;-87
2023/09/17 06:47:45;;;;;;;36.27;31.57;;;;;;;15.85;100.00;101035.03;5356297;27;20448;-86
2023/09/17 06:50:17;;;;;;;33.60;30.40;;;;;;;15.96;100.00;101029.44;5355136;27;20024;-86
2023/09/17 06:52:48;;;;;;;34.10;31.10;;;;;;;16.01;100.00;101035.41;5339077;27;20043;-86
2023/09/17 06:55:19;;;;;;;34.30;30.90;;;;;;;16.03;100.00;101032.75;5352228;27;20041;-85
2023/09/17 06:57:51;;;;;;;35.57;32.27;;;;;;;16.12;100.00;101032.47;5354633;27;20023;-85
2023/09/17 07:00:22;;;;;;;35.13;31.63;;;;;;;16.23;100.00;101029.50;5348742;27;20098;-85
2023/09/17 07:02:54;;;;;;;35.13;31.53;;;;;;;16.29;100.00;101036.31;5355985;27;20071;-85
2023/09/17 07:05:25;;;;;;;34.07;30.70;;;;;;;16.20;100.00;101032.22;5370568;27;20041;-85
2023/09/17 07:07:57;;;;;;;35.30;31.97;;;;;;;16.24;100.00;101041.72;5365868;27;20035;-85
2023/09/17 07:10:29;;;;;;;34.23;31.00;;;;;;;16.21;100.00;101045.31;5354318;27;20118;-86
2023/09/17 07:13:00;;;;;;;31.45;28.60;;;;;;;16.29;100.00;101038.94;5354158;27;20028;-86
2023/09/17 07:15:31;;;;;;;35.70;32.37;;;;;;;16.33;100.00;101038.78;5360714;27;20023;-86
2023/09/17 07:18:03;;;;;;;34.70;31.00;;;;;;;16.35;100.00;101034.34;5361086;27;20031;-86
2023/09/17 07:20:36;;;;;;;34.87;31.33;;;;;;;16.34;100.00;101034.38;5371385;27;20035;-86
2023/09/17 07:23:08;;;;;;;33.47;30.58;;;;;;;16.58;100.00;101037.97;5375788;27;20022;-86
2023/09/17 07:25:39;;;;;;;36.10;32.13;;;;;;;16.56;100.00;101034.53;5355828;27;20099;-87
2023/09/17 07:28:11;;;;;;;34.13;30.83;;;;;;;16.71;100.00;101025.25;5356702;27;20125;-87
2023/09/17 07:30:42;;;;;;;35.13;31.83;;;;;;;16.64;100.00;101027.22;5375100;27;20019;-88
2023/09/17 07:33:14;;;;;;;34.43;31.30;;;;;;;16.75;100.00;101030.34;5358435;27;20565;-88
2023/09/17 07:35:45;;;;;;;35.07;31.33;;;;;;;16.83;100.00;101024.84;5360908;27;20053;-87
2023/09/17 07:38:17;;;;;;;34.17;30.60;;;;;;;16.96;100.00;101027.94;5393777;27;20030;-87
2023/09/17 07:40:48;;;;;;;35.20;31.80;;;;;;;17.04;100.00;101022.38;5393585;27;20057;-86
2023/09/17 07:43:19;;;;;;;35.33;32.03;;;;;;;17.12;100.00;101020.34;5393212;27;20030;-87
2023/09/17 07:45:51;;;;;;;36.27;32.67;;;;;;;17.25;100.00;101024.22;5392497;27;20034;-86
2023/09/17 07:48:24;;;;;;;35.10;31.70;;;;;;;17.30;100.00;101018.78;5388586;27;20086;-89
2023/09/17 07:50:59;;;;;;;31.35;28.55;;;;;;;17.40;100.00;101019.31;5383850;27;20030;-87
2023/09/17 07:53:32;;;;;;;35.20;31.42;;;;;;;17.44;100.00;101029.69;5376613;27;20027;-88
2023/09/17 07:56:04;;;;;;;33.50;30.45;;;;;;;17.45;100.00;101031.41;5374280;27;20035;-87
2023/09/17 07:58:36;;;;;;;37.47;34.03;;;;;;;17.44;100.00;101032.31;5375224;27;20083;-88
2023/09/17 08:01:07;;;;;;;37.97;34.20;;;;;;;17.46;100.00;101032.25;5374436;27;20041;-89
2023/09/17 08:03:39;;;;;;;35.77;32.50;;;;;;;17.38;100.00;101047.50;5373908;27;20034;-88
2023/09/17 08:06:11;;;;;;;36.40;33.20;;;;;;;17.37;100.00;101054.56;5377589;27;20056;-88
2023/09/17 08:08:45;;;;;;;36.95;33.40;;;;;;;17.40;100.00;101056.19;5378801;27;20106;-88
2023/09/17 08:11:19;;;;;;;37.50;33.90;;;;;;;17.41;100.00;101056.16;5379033;27;20038;-90
2023/09/17 08:13:50;;;;;;;37.30;33.83;;;;;;;17.48;100.00;101049.75;5361212;27;20026;-87
2023/09/17 08:16:24;;;;;;;36.03;32.73;;;;;;;17.52;100.00;101046.97;5378747;27;20026;-88
2023/09/17 08:18:55;;;;;;;38.22;34.72;;;;;;;17.55;100.00;101050.38;5379400;27;20033;-88
2023/09/17 08:21:27;;;;;;;39.22;35.22;;;;;;;17.55;100.00;101050.38;5377916;27;20114;-89
2023/09/17 08:23:59;;;;;;;37.97;34.40;;;;;;;17.67;100.00;101062.22;5380089;27;20058;-88
2023/09/17 08:26:30;;;;;;;39.08;35.10;;;;;;;17.73;100.00;101053.22;5377332;27;20056;-89
2023/09/17 08:29:05;;;;;;;38.60;34.90;;;;;;;17.72;100.00;101052.34;5378190;27;20035;-88
2023/09/17 08:31:36;;;;;;;39.95;36.28;;;;;;;17.83;100.00;101052.78;5379652;27;20037;-89
2023/09/17 08:34:07;;;;;;;39.83;36.23;;;;;;;17.88;100.00;101057.06;5361925;27;20106;-86
2023/09/17 08:36:40;;;;;;;39.27;34.30;;;;;;;17.96;100.00;101052.34;5380971;27;20058;-88
2023/09/17 08:39:11;;;;;;;;;;;;;;;18.34;100.00;101056.09;5380678;27;20434;-88
2023/09/17 08:41:43;;;;;;;40.53;36.50;;;;;;;18.29;100.00;101052.78;5377356;27;19966;-87
2023/09/17 08:44:17;;;;;;;42.20;37.92;;;;;;;18.36;100.00;101048.13;5378519;27;20042;-88
2023/09/17 08:46:51;;;;;;;38.90;35.40;;;;;;;18.49;100.00;101054.59;5377896;27;20049;-87
2023/09/17 08:49:23;;;;;;;38.80;35.00;;;;;;;18.57;100.00;101057.78;5358174;27;20030;-89
2023/09/17 08:51:57;;;;;;;41.13;35.90;;;;;;;18.63;100.00;101064.59;5375235;27;20354;-89
2023/09/17 08:54:41;;;;;;;37.95;34.47;;;;;;;18.76;100.00;101072.84;5375678;27;20488;-89
2023/09/17 08:57:14;;;;;;;38.17;34.42;;;;;;;18.95;100.00;101071.16;5359482;27;20037;-89
2023/09/17 08:59:52;;;;;;;36.80;33.33;;;;;;;19.09;100.00;101069.69;5359302;27;20171;-89
2023/09/17 09:02:32;;;;;;;35.30;31.95;;;;;;;19.03;100.00;101077.88;5379626;27;20026;-89
2023/09/17 09:05:04;;;;;;;34.58;31.48;;;;;;;18.94;100.00;101081.78;5394016;27;20011;-86
2023/09/17 09:07:36;;;;;;;36.38;33.08;;;;;;;18.93;100.00;101083.59;5378702;27;20086;-88
2023/09/17 09:10:09;;;;;;;34.33;31.15;;;;;;;18.91;100.00;101088.06;5392845;27;20042;-88
2023/09/17 09:12:42;;;;;;;36.42;32.90;;;;;;;18.79;100.00;101088.56;5391064;27;20458;-89
2023/09/17 09:15:14;;;;;;;36.28;32.63;;;;;;;18.87;100.00;101098.81;5345299;27;20030;-87
2023/09/17 09:17:47;;;;;;;36.77;33.13;;;;;;;18.72;100.00;101108.22;5361076;27;20043;-88
2023/09/17 09:20:18;;;;;;;39.17;35.25;;;;;;;18.59;100.00;101097.31;5366125;27;20023;-89
2023/09/17 09:22:50;;;;;;;40.90;36.30;;;;;;;18.47;100.00;101092.56;5376596;27;20397;-89
2023/09/17 09:25:26;;;;;;;44.87;36.80;;;;;;;18.43;100.00;101093.59;5373064;27;20030;-88
2023/09/17 09:28:00;;;;;;;43.85;38.42;;;;;;;18.34;100.00;101084.28;5377068;27;20373;-89
2023/09/17 09:30:31;;;;;;;41.85;37.47;;;;;;;18.27;100.00;101090.69;5384535;27;20034;-88
2023/09/17 09:33:03;;;;;;;43.85;39.45;;;;;;;18.32;100.00;101088.72;5362309;27;20055;-88
2023/09/17 09:35:35;;;;;;;43.22;38.85;;;;;;;18.29;100.00;101079.19;5337701;27;20095;-88
2023/09/17 09:38:07;;;;;;;42.57;38.23;;;;;;;18.28;100.00;101084.53;5356211;27;20038;-90
2023/09/17 09:40:40;;;;;;;43.20;38.80;;;;;;;18.22;100.00;101082.97;5336828;27;20054;-89
2023/09/17 09:43:30;;;;;;;43.45;38.80;;;;;;;18.31;100.00;101079.97;5356300;27;20039;-89
2023/09/17 09:46:05;;;;;;;43.22;38.58;;;;;;;18.34;100.00;101073.72;5355609;27;20031;-86
2023/09/17 09:48:38;;;;;;;45.50;40.65;;;;;;;18.27;100.00;101074.88;5358108;27;20027;-88
2023/09/17 09:51:09;;;;;;;44.10;39.38;;;;;;;18.30;100.00;101074.75;5358571;27;20084;-88
2023/09/17 09:53:41;;;;;;;44.03;39.10;;;;;;;18.36;100.00;101079.78;5359806;27;20027;-89
2023/09/17 09:56:14;;;;;;;44.47;39.90;;;;;;;18.39;100.00;101077.03;5364002;27;20117;-89
2023/09/17 09:58:45;;;;;;;43.47;38.90;;;;;;;18.43;100.00;101072.47;5347487;27;20046;-89
2023/09/17 10:01:17;;;;;;;46.43;41.37;;;;;;;18.57;100.00;101081.53;5346662;27;20032;-89
2023/09/17 10:03:50;;;;;;;43.27;38.83;;;;;;;18.65;100.00;101073.28;5361462;27;20473;-90
2023/09/17 10:06:23;;;;;;;43.00;38.22;;;;;;;18.76;100.00;101078.97;5355681;27;20084;-90
2023/09/17 10:08:54;;;;;;;39.60;35.30;;;;;;;18.94;100.00;101079.16;5357211;27;20031;-91
2023/09/17 10:11:26;;;;;;;40.70;36.47;;;;;;;19.07;100.00;101076.84;5355175;27;20037;-87
2023/09/17 10:14:19;;;;;;;38.65;34.80;;;;;;;19.22;100.00;101073.50;5355379;27;20027;-89
2023/09/17 10:16:51;;;;;;;38.50;34.47;;;;;;;19.52;100.00;101064.28;5334011;27;20111;-88
2023/09/17 10:19:25;;;;;;;37.15;33.42;;;;;;;20.07;100.00;101064.34;5335043;27;20091;-88
2023/09/17 10:21:58;;;;;;;37.10;33.58;;;;;;;20.49;100.00;101075.56;5336073;27;20015;-88
2023/09/17 10:24:31;;;;;;;35.30;31.65;;;;;;;20.66;100.00;101074.78;5335679;27;20035;-88
2023/09/17 10:27:08;;;;;;;32.92;29.73;;;;;;;20.63;100.00;101074.88;5337205;27;20023;-87
2023/09/17 10:29:43;;;;;;;33.58;30.02;;;;;;;20.50;100.00;101067.56;5360789;27;20084;-87
2023/09/17 10:32:18;;;;;;;34.17;30.42;;;;;;;20.54;100.00;101063.81;5378930;27;20033;-86
2023/09/17 10:34:52;;;;;;;34.22;30.85;;;;;;;20.69;100.00;101066.69;5372498;27;20084;-87
2023/09/17 10:37:26;;;;;;;33.03;29.98;;;;;;;20.75;100.00;101077.81;5349297;27;20090;-86
2023/09/17 10:39:58;;;;;;;32.03;29.05;;;;;;;20.81;100.00;101075.78;5367702;27;20443;-87
2023/09/17 10:42:32;;;;;;;30.85;27.65;;;;;;;20.71;100.00;101072.75;5361438;27;20075;-86
2023/09/17 10:45:07;;;;;;;31.95;28.88;;;;;;;20.79;100.00;101069.72;5365348;27;20042;-88
2023/09/17 10:47:40;;;;;;;30.13;26.98;;;;;;;20.70;100.00;101068.38;5384235;27;20119;-86
2023/09/17 10:50:14;;;;;;;29.88;26.85;;;;;;;20.63;100.00;101073.09;5354078;27;20042;-88
2023/09/17 10:52:45;;;;;;;30.08;27.23;;;;;;;20.54;100.00;101069.13;5374042;27;20077;-87
2023/09/17 10:55:18;;;;;;;28.77;26.03;;;;;;;21.00;100.00;101054.50;5373155;27;20038;-87
2023/09/17 10:58:03;;;;;;;30.00;27.05;;;;;;;21.47;100.00;101059.03;5374347;27;20038;-88
2023/09/17 11:00:37;;;;;;;27.92;25.02;;;;;;;21.52;100.00;101056.19;5364467;27;20031;-86
2023/09/17 11:03:11;;;;;;;28.58;26.08;;;;;;;21.77;100.00;101051.25;5371290;27;20050;-88
2023/09/17 11:05:43;;;;;;;27.23;24.65;;;;;;;21.76;100.00;101065.44;5364692;27;20019;-88
2023/09/17 11:08:15;;;;;;;29.00;25.98;;;;;;;21.76;100.00;101068.09;5370723;27;20201;-87
2023/09/17 11:10:47;;;;;;;;;;;;;;;22.35;100.00;101065.69;5367478;27;20100;-86
2023/09/17 11:13:19;;;;;;;25.30;22.93;;;;;;;22.34;98.12;101069.28;5345420;27;19947;-87
2023/09/17 11:15:56;;;;;;;24.88;22.38;;;;;;;22.44;97.36;101077.56;5350543;27;20031;-86
2023/09/17 11:18:27;;;;;;;24.98;22.38;;;;;;;22.42;96.49;101079.47;5377483;27;20035;-85
2023/09/17 11:21:06;;;;;;;26.67;21.90;;;;;;;22.47;97.54;101065.91;5378207;27;20096;-86
2023/09/17 11:23:45;;;;;;;23.65;21.25;;;;;;;22.28;96.27;101074.94;5369627;27;20031;-87
2023/09/17 11:26:25;;;;;;;21.60;19.63;;;;;;;22.19;96.89;101084.25;5367803;27;20522;-86